De Smet, South Dakota
Current Conditions -  °F | °C
As of 10:55 AM on Saturday 25 Oct 2014 (Local Time) from KHON Reporting Station
Clear Clear  
Wind Chill: 59°   Ceiling: Unl
Heat Index: 59°   Visibility: 10mi
Dew Point: 35°   Wind: 7mph
Humidity: 41%   Direction: 30°NNE
Pressure: 30.16"   Gusts: NA
Location:  44.39°N, 97.55°W
Report Text: KHON 251555Z AUTO 03006KT 10SM CLR 15/02 A3016 RMK AO2 SLP215 T01500017
Loading
Personal Weather Stations






























Interactive Weather Map
Tropical Storm Tracking
New forecast layout! Learn more

10-Day Weather Forecast

Advertisements
Track Severe Weather on mobile